San Diego, CA

20:44 PDT le 20 octobre 2014 (GMT -0700)
Embarcadero North | Change Station
CLOSE
Current Station
Stations météorologiques personnelles
Location: San Diego, CA
Altitude: 10 ft
Stations météo à proximité

Alt. 10 ft 32.72 °N, 117.17 °W | Updated 2 seconds ago

Mostly Cloudy
Nuageux
67.7 ° F
Paraît 67.7 ° F
N
3.4
Vent Variable Vent de OSO
Gusts 4.0 mph

Aujourd'hui
Haut(e) -- | Bas -- ° F
--% Risque de précip.
Hier
Haut(e) -- | Bas -- ° F
Precip. -- pouce
6:56 AM 6:09 PM
Lune descendante, 7% visible
Pression 29.91 pouce
Visibilité 10.0 Miles terrestres
Nuages Nuageux 1800 ft
Point de rosée 63 ° F
Humidité 84%
Précipitations 0.00 pouce
Profondeur de la couche neigeuse Non disponible.
UV 0 sur 12
Pollen 3.60 sur 12
Ozone Bon
PM2.5 Bon
Flu Activity Sporadic
METAR KSAN 210251Z 32004KT 10SM BKN018 21/16 A2991 RMK AO2 SLP129 T02060161 53009

More Conditions Fewer Conditions

Pression 29.91 pouce
Visibilité 10.0 Miles terrestres
Nuages Nuageux 1800 ft
Point de rosée 63 ° F
Humidité 84%
Précipitations 0.00 pouce
Profondeur de la couche neigeuse Non disponible.
UV 0 sur 12
Pollen 3.60 sur 12
Ozone Bon
PM2.5 Bon
Flu Activity Sporadic
METAR KSAN 210251Z 32004KT 10SM BKN018 21/16 A2991 RMK AO2 SLP129 T02060161 53009

More Conditions Fewer Conditions

10-Day Weather Forecast

Almanac

Astronomie

Oct. 20, 2014 Lever Coucher
Temps réel 06:56 PDT 18:09 PDT
Crépuscule civil 06:31 PDT 18:34 PDT
Crépuscule nautique 06:02 PDT 19:03 PDT
Crépuscule astronomique 05:34 PDT 19:31 PDT
Lune 03:58 PDT (10/20) 16:26 PDT (10/20)
Durée de lumière visible 12h 03m
Longueur du jour
11h 13m
Tomorrow will be 1m 53s shorter.
Lune descendante, 7% of the Moon is Illuminated
Aujourd'hui
Lune descendante
Oct 23
Nouveau
Oct 30
Premier quartier
Nov 6
Pleine lune
Nov 14
Dernier quartier

Extrêmes aujourd'hui

State Highs State Lows

Community

WunderPhotos

Upload Photos

1,763,594 Photos téléchargées !

Nearby

Qualité de l'air

  Qualité de l'air Indice de la qualité de l'air Polluant
Hier Bon
OZONE
Hier Bon
PM2.5
Actuel Bon
OZONE
Actuel Bon
PM2.5
lundi Bon
PM2.5
lundi Bon
OZONE
mardi Bon
PM2.5
mardi Bon
OZONE

Épaisseur de neige

Station Depth Altitude
Virginia Lakes Ridge 0 in 9200 ft
Leavitt Lake 1 in 9400 ft
Leavitt Meadows 1 in 7200 ft
Sonora Pass 0 in 8800 ft
Summit Meadow 1 in 9122 ft

Activité sismique

Ville Distance Mag. Time & Date
No recent earthquake activity has been reported nearby.
Minimum magnitude displayed is 2.5.

Températures des eaux côtières

Lieu Température
La Jolla, CA 71.1 ° F
San Diego, CA 73.9 ° F

Stations météo à proximité